KPS weather

Kempsey Airport
New South Wales, Australia

Public forecast

Using degrees Celsius for public forecast. Weather courtesy of forecast.io.

METAR (pilot weather report)

Closest report is Port Macquarie Airport, 22.2 nm (41.1 km) SSE. Retrieved 2019/04/19 14:30 UTC (4 minutes ago):

YPMQ 191430Z AUTO 22004KT 9999 // BKN003 BKN115 19/18 Q1025

TAF (pilot weather forecast)

Closest forecast is Taree Airport, 50.6 nm (93.7 km) SSW. Retrieved 2019/04/19 14:33 UTC (1 minute ago):

TAF YTRE 191307Z 1914/2002 30003KT 9999 -SHRA SCT025 FM200100 07005KT 9999 -SHRA SCT030 INTER 1914/2002 3000 SHRA BKN015 PROB30 1914/1922 0500 FG BKN001